Time;durP1;ratioP1;P1;durP2;ratioP2;P2;SDS_P1;SDS_P2;PMS_P1;PMS_P2;Temp;Humidity;BMP_temperature;BMP_pressure;BME280_temperature;BME280_humidity;BME280_pressure;Samples;Min_cycle;Max_cycle;Signal;HPM_P1;HPM_P2
2020/12/03 00:01:12;;;;;;;40.85;22.85;;;;;;;4.87;91.21;99612.78;5055454;28;20045;-69
2020/12/03 00:03:43;;;;;;;43.65;22.48;;;;;;;4.95;90.81;99609.81;5057852;28;20430;-69
2020/12/03 00:06:20;;;;;;;40.83;21.40;;;;;;;4.89;91.16;99610.91;5057782;28;20468;-69
2020/12/03 00:08:52;;;;;;;42.80;22.20;;;;;;;4.94;91.36;99595.72;5057724;28;20053;-69
2020/12/03 00:11:20;;;;;;;40.05;22.25;;;;;;;4.91;91.42;99590.56;5057870;28;20045;-69
2020/12/03 00:13:46;;;;;;;38.92;21.17;;;;;;;4.94;90.70;99587.78;5057668;28;20119;-68
2020/12/03 00:16:13;;;;;;;37.38;19.50;;;;;;;4.98;89.88;99576.13;5057637;28;20055;-70
2020/12/03 00:18:39;;;;;;;39.40;21.00;;;;;;;4.93;90.32;99574.63;5057510;28;20430;-69
2020/12/03 00:21:10;;;;;;;34.72;20.23;;;;;;;4.95;90.60;99565.69;5057641;28;20378;-70
2020/12/03 00:23:38;;;;;;;39.07;21.10;;;;;;;4.89;90.27;99563.31;5057624;28;20052;-69
2020/12/03 00:26:06;;;;;;;33.88;18.85;;;;;;;4.71;90.37;99531.53;5056473;28;20126;-69
2020/12/03 00:28:42;;;;;;;39.17;20.73;;;;;;;4.84;90.90;99565.31;5057653;28;20072;-68
2020/12/03 00:31:09;;;;;;;43.05;19.75;;;;;;;4.81;91.15;99560.19;5057265;28;20045;-69
2020/12/03 00:33:35;;;;;;;36.33;19.20;;;;;;;4.86;90.81;99556.38;5057430;28;20118;-69
2020/12/03 00:36:01;;;;;;;37.42;19.08;;;;;;;4.89;90.36;99545.69;5057496;28;20049;-69
2020/12/03 00:38:27;;;;;;;34.47;18.45;;;;;;;4.80;90.81;99532.03;5057085;28;20049;-69
2020/12/03 00:40:53;;;;;;;39.63;20.42;;;;;;;4.84;90.54;99538.88;5057246;28;20049;-69
2020/12/03 00:43:20;;;;;;;36.80;19.10;;;;;;;4.91;90.29;99540.31;5057069;28;20053;-68
2020/12/03 00:45:48;;;;;;;34.75;19.17;;;;;;;4.89;90.19;99528.94;5056006;28;20064;-69
2020/12/03 00:48:18;;;;;;;36.97;19.83;;;;;;;4.86;91.06;99535.22;5057012;28;20053;-69
2020/12/03 00:50:45;;;;;;;39.27;19.60;;;;;;;4.86;90.41;99523.81;5057008;28;20055;-69
2020/12/03 00:53:11;;;;;;;35.50;18.98;;;;;;;4.82;90.65;99527.53;5056076;28;20052;-69
2020/12/03 00:55:37;;;;;;;39.45;18.70;;;;;;;4.84;90.59;99521.25;5057185;28;20413;-69
2020/12/03 00:58:07;;;;;;;38.67;20.05;;;;;;;4.82;90.72;99522.25;5056758;28;20111;-68
2020/12/03 01:00:33;;;;;;;41.35;20.95;;;;;;;4.82;90.80;99514.31;5056856;28;20045;-69
2020/12/03 01:03:00;;;;;;;33.05;18.73;;;;;;;4.82;90.54;99509.00;5056909;28;20048;-69
2020/12/03 01:05:26;;;;;;;34.35;20.38;;;;;;;4.80;90.68;99503.78;5055614;28;20423;-69
2020/12/03 01:07:53;;;;;;;37.20;19.98;;;;;;;4.83;90.85;99498.38;5056555;28;20493;-69
2020/12/03 01:10:23;;;;;;;33.63;18.80;;;;;;;4.82;90.88;99486.09;5056639;28;20136;-68
2020/12/03 01:12:49;;;;;;;36.22;20.20;;;;;;;4.85;91.63;99485.94;5055232;28;20053;-69
2020/12/03 01:15:17;;;;;;;40.50;19.98;;;;;;;4.83;91.14;99487.81;5056650;28;20350;-69
2020/12/03 01:17:44;;;;;;;37.42;19.90;;;;;;;4.80;90.60;99482.63;5056537;28;20132;-69
2020/12/03 01:20:17;;;;;;;34.88;19.63;;;;;;;4.75;90.26;99464.38;5056549;28;20103;-70
2020/12/03 01:22:43;;;;;;;37.80;20.77;;;;;;;4.84;91.30;99478.06;5056421;28;20052;-69
2020/12/03 01:25:09;;;;;;;38.28;21.58;;;;;;;4.80;91.49;99469.41;5056603;28;20049;-68
2020/12/03 01:27:36;;;;;;;40.42;19.45;;;;;;;4.87;90.89;99477.94;5056538;28;20465;-69
2020/12/03 01:30:07;;;;;;;33.33;19.70;;;;;;;4.68;90.52;99443.59;5056357;28;20095;-70
2020/12/03 01:32:33;;;;;;;38.17;20.92;;;;;;;4.84;91.28;99472.78;5056016;28;20053;-69
2020/12/03 01:35:00;;;;;;;35.17;19.85;;;;;;;4.92;90.29;99465.34;5056415;28;20052;-68
2020/12/03 01:37:26;;;;;;;38.88;20.75;;;;;;;4.81;90.96;99465.88;5056001;28;20056;-69
2020/12/03 01:39:52;;;;;;;40.08;20.73;;;;;;;4.91;90.51;99471.56;5056239;28;20049;-69
2020/12/03 01:42:18;;;;;;;34.78;20.52;;;;;;;4.83;90.88;99457.84;5054903;28;20438;-69
2020/12/03 01:44:49;;;;;;;34.08;19.52;;;;;;;4.82;90.65;99458.78;5056009;28;20132;-70
2020/12/03 01:47:35;;;;;;;34.00;19.70;;;;;;;4.77;90.89;99456.38;5055855;28;20061;-69
2020/12/03 01:50:06;;;;;;;38.78;20.67;;;;;;;4.70;91.51;99447.03;5055915;28;20546;-69
2020/12/03 01:52:33;;;;;;;37.83;20.48;;;;;;;4.72;92.15;99447.78;5055808;28;20079;-69
2020/12/03 01:55:00;;;;;;;34.63;19.63;;;;;;;4.72;92.52;99443.38;5055746;28;20338;-69
2020/12/03 01:57:58;;;;;;;38.08;20.52;;;;;;;4.76;92.01;99444.91;5055720;28;20114;-69
2020/12/03 02:00:24;;;;;;;38.80;20.13;;;;;;;4.73;92.44;99438.94;5055739;28;20480;-70
2020/12/03 02:02:52;;;;;;;39.05;19.35;;;;;;;4.73;92.23;99438.94;5054512;28;20106;-69
2020/12/03 02:05:22;;;;;;;35.58;19.88;;;;;;;4.68;92.00;99430.38;5054614;28;20064;-69
2020/12/03 02:07:49;;;;;;;36.47;20.23;;;;;;;4.68;92.11;99433.88;5055634;28;20052;-69
2020/12/03 02:10:18;;;;;;;36.80;19.80;;;;;;;4.68;92.08;99436.50;5055603;28;20357;-69
2020/12/03 02:12:45;;;;;;;41.65;19.67;;;;;;;4.69;93.05;99437.38;5055288;28;20049;-69
2020/12/03 02:15:13;;;;;;;38.47;19.60;;;;;;;4.73;92.11;99429.22;5054688;28;20063;-70
2020/12/03 02:17:40;;;;;;;36.33;19.67;;;;;;;4.76;92.32;99425.56;5055407;28;20056;-69
2020/12/03 02:20:11;;;;;;;40.65;19.20;;;;;;;4.72;92.03;99422.22;5055232;28;20353;-69
2020/12/03 02:22:38;;;;;;;33.88;19.00;;;;;;;4.73;91.50;99418.66;5054007;28;20060;-69
2020/12/03 02:25:05;;;;;;;35.50;19.30;;;;;;;4.73;91.12;99399.28;5054741;28;20485;-69
2020/12/03 02:27:31;;;;;;;37.03;19.30;;;;;;;4.76;92.12;99409.72;5054288;28;20060;-69
2020/12/03 02:29:57;;;;;;;34.10;17.60;;;;;;;4.76;91.64;99404.44;5055632;28;20053;-69
2020/12/03 02:32:24;;;;;;;33.08;18.02;;;;;;;4.81;91.56;99399.78;5055507;28;20063;-69
2020/12/03 02:34:50;;;;;;;33.63;18.75;;;;;;;4.88;91.66;99397.66;5055177;28;20067;-69
2020/12/03 02:37:16;;;;;;;37.17;18.88;;;;;;;4.83;90.87;99391.75;5055043;28;20052;-69
2020/12/03 02:39:43;;;;;;;32.85;16.98;;;;;;;4.81;90.90;99391.84;5054890;28;20048;-69
2020/12/03 02:42:14;;;;;;;26.42;15.75;;;;;;;4.82;90.74;99397.97;5054993;28;20045;-70
2020/12/03 02:44:43;;;;;;;28.40;16.38;;;;;;;4.83;90.38;99386.47;5054839;28;20426;-69
2020/12/03 02:47:11;;;;;;;28.63;16.60;;;;;;;4.84;91.04;99385.53;5054985;28;20053;-69
2020/12/03 02:49:41;;;;;;;26.75;16.50;;;;;;;4.83;90.23;99389.97;5054698;28;20092;-69
2020/12/03 02:52:17;;;;;;;29.38;16.38;;;;;;;4.85;91.02;99384.63;5054809;28;20057;-69
2020/12/03 02:54:43;;;;;;;28.10;14.55;;;;;;;4.83;90.02;99375.88;5054670;28;20462;-69
2020/12/03 02:57:10;;;;;;;34.00;15.82;;;;;;;4.77;90.18;99366.47;5053470;28;20091;-68
2020/12/03 02:59:37;;;;;;;25.85;13.90;;;;;;;4.86;89.76;99368.66;5054729;28;20095;-68
2020/12/03 03:02:04;;;;;;;25.25;14.10;;;;;;;4.87;90.22;99361.59;5054743;28;20092;-69
2020/12/03 03:04:31;;;;;;;23.13;12.73;;;;;;;4.84;89.60;99356.44;5054827;28;20110;-69
2020/12/03 03:06:57;;;;;;;26.67;12.98;;;;;;;4.84;89.86;99361.72;5054565;28;20679;-69
2020/12/03 03:09:23;;;;;;;21.00;11.75;;;;;;;4.81;89.59;99346.03;5053707;28;20049;-69
2020/12/03 03:11:50;;;;;;;21.23;12.40;;;;;;;4.75;89.80;99342.75;5054705;28;20068;-69
2020/12/03 03:14:18;;;;;;;23.13;13.02;;;;;;;4.76;90.15;99336.53;5053697;28;20049;-69
2020/12/03 03:16:44;;;;;;;20.85;12.15;;;;;;;4.78;89.28;99325.03;5053490;28;20053;-68
2020/12/03 03:19:12;;;;;;;20.15;11.98;;;;;;;4.74;90.36;99317.25;5054605;28;20106;-68
2020/12/03 03:21:40;;;;;;;18.77;11.05;;;;;;;4.82;89.48;99327.44;5054801;28;20079;-69
2020/12/03 03:24:07;;;;;;;23.58;11.55;;;;;;;4.78;89.30;99320.59;5054553;28;20060;-68
2020/12/03 03:26:33;;;;;;;22.92;11.88;;;;;;;4.73;88.90;99322.59;5053447;28;20072;-68
2020/12/03 03:28:59;;;;;;;19.77;11.68;;;;;;;4.71;89.04;99311.25;5054783;28;20052;-69
2020/12/03 03:31:25;;;;;;;20.10;11.52;;;;;;;4.70;89.79;99310.44;5053283;28;20053;-69
2020/12/03 03:33:51;;;;;;;20.65;11.05;;;;;;;4.74;89.98;99309.31;5054649;28;20056;-69
2020/12/03 03:36:17;;;;;;;19.30;10.80;;;;;;;4.71;89.28;99301.56;5056900;28;20061;-69
2020/12/03 03:38:44;;;;;;;19.50;10.68;;;;;;;4.77;89.10;99287.16;5058490;28;20053;-68
2020/12/03 03:41:10;;;;;;;24.30;10.77;;;;;;;4.74;89.02;99284.69;5058361;28;20052;-69
2020/12/03 03:43:37;;;;;;;18.02;10.15;;;;;;;4.69;88.74;99289.34;5058747;28;20060;-69
2020/12/03 03:46:03;;;;;;;19.90;10.02;;;;;;;4.71;89.30;99283.06;5058150;28;20393;-68
2020/12/03 03:48:29;;;;;;;21.00;9.98;;;;;;;4.69;89.37;99279.63;5058510;28;20086;-69
2020/12/03 03:50:56;;;;;;;18.92;10.50;;;;;;;4.67;88.86;99263.00;5058407;28;20045;-71
2020/12/03 03:53:22;;;;;;;15.52;9.38;;;;;;;4.68;88.95;99263.84;5058875;28;20342;-68
2020/12/03 03:55:48;;;;;;;17.80;9.52;;;;;;;4.60;88.79;99269.53;5058450;28;20401;-68
2020/12/03 03:58:14;;;;;;;16.75;8.73;;;;;;;4.55;89.38;99250.41;5057735;28;20053;-68
2020/12/03 04:00:43;;;;;;;15.60;9.30;;;;;;;4.58;89.68;99255.53;5040373;28;20049;-68
2020/12/03 04:03:13;;;;;;;17.60;8.98;;;;;;;4.64;89.03;99244.66;5057942;28;20451;-69
2020/12/03 04:05:40;;;;;;;16.05;9.40;;;;;;;4.50;89.97;99234.78;5057949;28;20480;-69
2020/12/03 04:08:07;;;;;;;14.52;8.85;;;;;;;4.54;89.29;99232.84;5057866;28;20122;-69
2020/12/03 04:10:33;;;;;;;17.77;9.30;;;;;;;4.66;89.98;99240.13;5057819;28;20049;-69
2020/12/03 04:13:00;;;;;;;19.50;9.82;;;;;;;4.69;88.90;99237.31;5057937;28;20131;-70
2020/12/03 04:15:27;;;;;;;14.80;8.65;;;;;;;4.62;89.08;99235.94;5057991;28;20083;-69
2020/12/03 04:17:53;;;;;;;14.52;8.90;;;;;;;4.64;88.45;99242.00;5056542;28;20064;-69
2020/12/03 04:20:22;;;;;;;13.20;8.27;;;;;;;4.64;89.37;99231.44;5057855;28;20131;-69
2020/12/03 04:22:48;;;;;;;14.25;8.68;;;;;;;4.70;88.64;99241.69;5056643;28;20064;-69
2020/12/03 04:25:15;;;;;;;13.07;7.82;;;;;;;4.67;88.68;99230.41;5057700;28;20052;-70
2020/12/03 04:27:42;;;;;;;16.45;8.65;;;;;;;4.73;88.18;99230.09;5057579;28;20410;-70
2020/12/03 04:30:09;;;;;;;18.05;8.98;;;;;;;4.60;88.42;99212.25;5057679;28;20095;-69
2020/12/03 04:32:36;;;;;;;15.10;7.68;;;;;;;4.71;88.62;99214.34;5057500;28;20084;-69
2020/12/03 04:35:04;;;;;;;17.17;7.97;;;;;;;4.73;88.15;99204.53;5057481;28;20049;-70
2020/12/03 04:37:30;;;;;;;12.43;7.40;;;;;;;4.75;87.66;99210.56;5057432;28;20053;-69
2020/12/03 04:39:56;;;;;;;11.63;6.78;;;;;;;4.66;88.00;99205.78;5057357;28;20439;-70
2020/12/03 04:42:30;;;;;;;10.73;6.80;;;;;;;4.63;87.98;99195.34;5057859;28;20102;-70
2020/12/03 04:45:01;;;;;;;12.25;7.05;;;;;;;4.68;87.84;99203.91;5057278;28;20053;-69
2020/12/03 04:47:56;;;;;;;12.98;7.28;;;;;;;4.69;87.92;99205.59;5055949;28;20060;-69
2020/12/03 04:50:30;;;;;;;9.90;6.40;;;;;;;4.58;88.16;99174.44;5057175;28;20057;-69
2020/12/03 04:53:10;;;;;;;13.13;7.10;;;;;;;4.67;87.94;99188.97;5056063;28;20057;-70
2020/12/03 04:55:48;;;;;;;15.50;7.35;;;;;;;4.66;87.63;99195.22;5056974;28;20083;-69
2020/12/03 04:58:31;;;;;;;13.02;7.45;;;;;;;4.66;87.81;99199.63;5057161;28;20060;-69
2020/12/03 05:01:18;;;;;;;11.95;6.90;;;;;;;4.58;88.50;99187.66;5055607;28;20052;-69
2020/12/03 05:03:59;;;;;;;11.63;6.85;;;;;;;4.68;88.54;99190.69;5056062;28;20118;-69
2020/12/03 05:06:40;;;;;;;13.02;7.22;;;;;;;4.71;87.78;99200.25;5056764;28;20106;-69
2020/12/03 05:09:06;;;;;;;10.20;6.03;;;;;;;4.65;87.99;99187.34;5056994;28;20049;-71
2020/12/03 05:11:38;;;;;;;11.73;6.90;;;;;;;4.64;88.64;99178.59;5057004;28;20163;-70
2020/12/03 05:14:42;;;;;;;14.00;7.35;;;;;;;4.78;87.74;99182.28;5057213;28;20060;-69
2020/12/03 05:17:15;;;;;;;9.30;6.38;;;;;;;4.76;88.15;99182.38;5057204;28;20048;-70
2020/12/03 05:19:49;;;;;;;10.50;6.90;;;;;;;4.72;89.25;99167.59;5056610;28;20057;-70
2020/12/03 05:22:21;;;;;;;13.20;6.43;;;;;;;4.77;87.36;99152.34;5056610;28;20057;-73
2020/12/03 05:24:47;;;;;;;11.57;7.35;;;;;;;4.64;88.08;99132.78;5034832;28;20081;-76
2020/12/03 05:27:25;;;;;;;12.80;7.45;;;;;;;4.70;88.56;99133.31;5035772;28;20053;-70
2020/12/03 05:29:58;;;;;;;12.93;7.32;;;;;;;4.71;88.22;99140.31;5047192;28;20056;-71
2020/12/03 05:32:25;;;;;;;10.80;7.50;;;;;;;4.70;88.41;99135.97;5056233;28;20052;-69
2020/12/03 05:34:51;;;;;;;11.35;6.80;;;;;;;4.75;87.98;99133.06;5056010;28;20049;-69
2020/12/03 05:37:21;;;;;;;11.20;7.20;;;;;;;4.74;87.13;99126.91;5055246;28;20122;-69
2020/12/03 05:39:52;;;;;;;11.65;7.50;;;;;;;4.75;88.08;99133.06;5055730;28;20450;-69
2020/12/03 05:42:30;;;;;;;11.52;7.22;;;;;;;4.72;88.97;99115.59;5056059;28;20083;-71
2020/12/03 05:44:59;;;;;;;11.10;6.88;;;;;;;4.77;88.78;99112.69;5056221;28;20111;-72
2020/12/03 05:47:32;;;;;;;9.20;7.13;;;;;;;4.78;87.71;99110.91;5055913;28;20186;-71
2020/12/03 05:50:03;;;;;;;12.20;7.65;;;;;;;4.73;88.13;99100.56;5054849;28;20380;-71
2020/12/03 05:52:30;;;;;;;;;;;;;;;4.78;87.40;99095.06;5054595;28;20373;-73
2020/12/03 05:55:09;;;;;;;9.30;6.65;;;;;;;4.76;87.43;99088.03;5053525;28;19921;-72
2020/12/03 05:57:41;;;;;;;9.93;6.53;;;;;;;4.79;86.92;99083.53;5051967;28;20107;-73
2020/12/03 06:00:13;;;;;;;12.88;7.03;;;;;;;4.79;86.67;99078.25;5054155;28;20051;-72
2020/12/03 06:02:57;;;;;;;10.38;6.43;;;;;;;4.72;86.50;99061.84;5054564;28;20057;-71
2020/12/03 06:05:38;;;;;;;13.05;6.57;;;;;;;4.75;86.30;99057.25;5053941;28;20079;-73
2020/12/03 06:08:11;;;;;;;;;;;;;;;4.74;86.74;99066.13;5054280;28;20110;-74
2020/12/03 06:10:52;;;;;;;11.23;7.07;;;;;;;4.72;86.85;99046.00;5053733;28;19998;-72
2020/12/03 06:13:42;;;;;;;12.15;6.18;;;;;;;4.82;86.39;99043.69;5054678;28;20057;-72
2020/12/03 06:16:53;;;;;;;10.33;6.33;;;;;;;4.75;86.75;99051.97;5055061;28;20053;-72
2020/12/03 06:19:50;;;;;;;14.00;6.50;;;;;;;4.75;87.21;99040.56;5054913;28;20505;-74
2020/12/03 06:22:26;;;;;;;11.23;6.90;;;;;;;4.79;86.57;99054.47;5053307;28;20048;-76
2020/12/03 06:24:58;;;;;;;10.75;6.35;;;;;;;4.78;87.29;99058.03;5055225;28;20056;-78
2020/12/03 06:28:02;;;;;;;11.68;7.75;;;;;;;4.75;87.37;99062.53;5054325;28;20435;-73
2020/12/03 06:30:31;;;;;;;10.50;6.40;;;;;;;4.66;87.20;99051.59;5055570;28;20060;-74
2020/12/03 06:33:22;;;;;;;11.55;6.20;;;;;;;4.76;86.53;99053.66;5054263;28;20052;-73
2020/12/03 06:35:57;;;;;;;10.27;5.95;;;;;;;4.75;86.88;99040.56;5054572;28;20328;-72
2020/12/03 06:38:54;;;;;;;11.27;6.45;;;;;;;4.85;85.79;99043.53;5039810;28;20509;-73
2020/12/03 06:42:05;;;;;;;12.32;6.45;;;;;;;4.72;85.85;99023.06;5053917;28;20045;-71
2020/12/03 06:44:41;;;;;;;11.68;6.32;;;;;;;4.76;86.51;99029.88;5054638;28;20045;-75
2020/12/03 06:47:48;;;;;;;12.38;6.28;;;;;;;4.75;86.38;99032.63;5051818;28;20190;-74
2020/12/03 06:50:38;;;;;;;11.35;6.07;;;;;;;4.78;85.19;99023.69;5053684;28;20053;-70
2020/12/03 06:53:26;;;;;;;11.77;6.70;;;;;;;4.85;86.00;99019.75;5046303;28;20095;-72
2020/12/03 06:56:22;;;;;;;12.88;6.78;;;;;;;4.82;85.79;99004.91;5053693;28;20049;-71
2020/12/03 06:58:54;;;;;;;9.27;5.97;;;;;;;4.78;86.34;98997.25;5053596;28;20061;-70
2020/12/03 07:01:52;;;;;;;9.60;6.57;;;;;;;4.82;85.61;99004.91;5054449;28;20056;-71
2020/12/03 07:04:42;;;;;;;12.15;6.65;;;;;;;4.83;85.90;99000.44;5053772;28;20056;-71
2020/12/03 07:07:20;;;;;;;10.35;6.20;;;;;;;4.85;86.41;99003.88;5053336;28;20053;-71
2020/12/03 07:09:49;;;;;;;10.80;6.88;;;;;;;4.78;85.28;98994.59;5054960;28;20057;-73
2020/12/03 07:12:15;;;;;;;9.70;6.25;;;;;;;4.80;85.34;98987.41;5054898;28;20130;-70
2020/12/03 07:15:22;;;;;;;10.75;6.70;;;;;;;4.90;85.01;98985.94;5054665;28;20561;-72
2020/12/03 07:18:07;;;;;;;9.85;6.70;;;;;;;4.83;84.69;98979.31;5051440;28;20053;-70
2020/12/03 07:20:48;;;;;;;15.50;7.38;;;;;;;4.80;85.48;98977.69;5054685;28;20049;-71
2020/12/03 07:23:38;;;;;;;10.05;5.88;;;;;;;4.78;84.58;98966.34;5054303;28;20052;-70
2020/12/03 07:26:23;;;;;;;11.70;6.40;;;;;;;4.75;85.57;98962.09;5053607;28;20441;-71
2020/12/03 07:28:52;;;;;;;8.82;6.38;;;;;;;4.81;85.30;98950.34;5053668;28;20053;-71
2020/12/03 07:31:33;;;;;;;8.85;5.82;;;;;;;4.76;84.03;98941.81;5054146;28;20509;-71
2020/12/03 07:34:23;;;;;;;;;;;;;;;4.85;84.32;98948.38;5053736;28;20056;-71
2020/12/03 07:37:00;;;;;;;9.15;5.57;;;;;;;4.85;83.82;98943.06;5054420;28;19921;-71
2020/12/03 07:39:32;;;;;;;10.25;5.97;;;;;;;4.81;84.07;98944.19;5055028;28;20378;-71
2020/12/03 07:42:03;;;;;;;10.18;6.32;;;;;;;4.72;84.55;98929.69;5054004;28;20053;-71
2020/12/03 07:44:36;;;;;;;11.63;6.63;;;;;;;4.79;84.88;98936.34;5055421;28;20071;-71
2020/12/03 07:47:14;;;;;;;12.90;6.57;;;;;;;4.79;84.21;98938.97;5056253;28;20052;-75
2020/12/03 07:49:43;;;;;;;11.60;6.25;;;;;;;4.76;84.72;98932.06;5056144;28;20053;-71
2020/12/03 07:52:26;;;;;;;11.25;6.50;;;;;;;4.71;83.94;98939.44;5055911;28;20122;-72
2020/12/03 07:54:53;;;;;;;11.55;6.07;;;;;;;4.73;83.84;98931.38;5036822;28;20346;-71
2020/12/03 07:57:24;;;;;;;12.38;6.68;;;;;;;4.76;85.08;98926.78;5033215;28;20126;-70
2020/12/03 07:59:50;;;;;;;9.18;5.90;;;;;;;4.79;84.73;98924.91;5041300;28;20041;-71
2020/12/03 08:02:48;;;;;;;10.18;5.57;;;;;;;4.80;84.65;98923.97;5053843;28;20049;-70
2020/12/03 08:05:40;;;;;;;11.43;6.03;;;;;;;4.73;84.56;98921.69;5051644;28;20415;-79
2020/12/03 08:08:31;;;;;;;10.85;4.85;;;;;;;4.80;83.76;98913.41;5049687;28;20049;-71
2020/12/03 08:10:57;;;;;;;11.18;6.35;;;;;;;4.75;84.84;98903.09;5053614;28;20041;-73
2020/12/03 08:13:36;;;;;;;9.43;6.30;;;;;;;4.75;84.78;98911.03;5053864;28;20128;-74
2020/12/03 08:16:09;;;;;;;10.90;7.13;;;;;;;4.64;86.73;98902.84;5053890;28;20430;-74
2020/12/03 08:18:57;;;;;;;11.32;6.65;;;;;;;4.48;86.87;98895.78;5050759;28;20056;-74
2020/12/03 08:21:36;;;;;;;12.63;7.45;;;;;;;4.48;88.00;98896.63;5051526;28;20037;-74
2020/12/03 08:24:02;;;;;;;12.77;7.05;;;;;;;4.41;88.23;98881.22;5055643;28;20506;-75
2020/12/03 08:26:29;;;;;;;12.18;7.30;;;;;;;4.40;88.40;98877.72;5056918;28;20136;-76
2020/12/03 08:28:55;;;;;;;13.38;7.72;;;;;;;4.40;88.83;98874.25;5057287;28;20057;-74
2020/12/03 08:31:21;;;;;;;11.55;7.13;;;;;;;4.34;88.42;98867.50;5057144;28;20071;-75
2020/12/03 08:33:54;;;;;;;13.57;8.18;;;;;;;4.18;89.43;98841.94;5057591;28;20053;-77
2020/12/03 08:36:23;;;;;;;11.75;7.68;;;;;;;4.26;88.27;98873.22;5056686;28;20052;-77
2020/12/03 08:38:54;;;;;;;11.60;7.40;;;;;;;4.16;89.55;98842.97;5057523;28;20132;-71
2020/12/03 08:41:25;;;;;;;12.73;7.65;;;;;;;4.29;89.45;98853.69;5057387;28;20044;-71
2020/12/03 08:43:59;;;;;;;13.27;7.50;;;;;;;4.29;89.03;98858.97;5057299;28;20053;-70
2020/12/03 08:46:31;;;;;;;13.07;8.35;;;;;;;4.25;88.42;98850.38;5056729;28;20053;-71
2020/12/03 08:48:57;;;;;;;11.75;7.35;;;;;;;4.28;88.88;98852.00;5057171;28;20045;-70
2020/12/03 08:51:23;;;;;;;12.00;7.78;;;;;;;4.31;88.32;98854.47;5057403;28;20053;-72
2020/12/03 08:53:50;;;;;;;11.65;7.22;;;;;;;4.30;88.20;98845.69;5057232;28;20045;-72
2020/12/03 08:56:23;;;;;;;13.45;8.57;;;;;;;4.31;89.90;98846.56;5057194;28;20057;-74
2020/12/03 08:58:49;;;;;;;15.45;8.07;;;;;;;4.37;88.19;98851.50;5056864;28;20064;-71
2020/12/03 09:01:18;;;;;;;11.40;7.57;;;;;;;4.43;87.97;98845.88;5056786;28;20045;-71
2020/12/03 09:03:45;;;;;;;11.63;7.30;;;;;;;4.41;87.66;98847.72;5056419;28;20053;-70
2020/12/03 09:06:13;;;;;;;10.55;7.57;;;;;;;4.38;88.14;98842.63;5055812;28;20132;-73
2020/12/03 09:08:40;;;;;;;13.35;8.05;;;;;;;4.47;87.28;98841.25;5056661;28;20049;-73
2020/12/03 09:11:07;;;;;;;11.02;7.50;;;;;;;4.50;86.35;98833.13;5056141;28;20123;-72
2020/12/03 09:13:34;;;;;;;11.70;7.50;;;;;;;4.58;86.96;98832.72;5039082;28;20053;-72
2020/12/03 09:16:01;;;;;;;13.43;7.88;;;;;;;4.49;86.84;98824.34;5054113;28;20068;-72
2020/12/03 09:18:27;;;;;;;13.88;7.75;;;;;;;4.51;87.31;98826.06;5053300;28;20056;-71
2020/12/03 09:20:54;;;;;;;13.27;7.78;;;;;;;4.51;86.92;98821.63;5056294;28;20049;-70
2020/12/03 09:23:22;;;;;;;12.75;7.82;;;;;;;4.56;86.09;98816.94;5054900;28;20399;-74
2020/12/03 09:25:50;;;;;;;13.93;7.72;;;;;;;4.51;85.99;98818.16;5055733;28;20438;-73
2020/12/03 09:28:18;;;;;;;11.77;6.63;;;;;;;4.52;86.40;98822.50;5056019;28;20064;-73
2020/12/03 09:30:52;;;;;;;11.60;7.05;;;;;;;4.52;85.39;98827.78;5056189;28;20433;-75
2020/12/03 09:33:22;;;;;;;10.68;7.05;;;;;;;4.46;86.53;98813.09;5056190;28;20072;-73
2020/12/03 09:35:51;;;;;;;12.95;7.72;;;;;;;4.48;86.34;98811.25;5055923;28;20107;-72
2020/12/03 09:38:18;;;;;;;10.93;6.85;;;;;;;4.57;85.98;98809.88;5055659;28;20677;-71
2020/12/03 09:40:46;;;;;;;8.65;6.03;;;;;;;4.54;85.47;98800.31;5055689;28;20049;-73
2020/12/03 09:43:18;;;;;;;12.68;6.72;;;;;;;4.54;85.94;98799.47;5056112;28;20045;-74
2020/12/03 09:45:49;;;;;;;10.55;6.88;;;;;;;4.59;84.93;98797.41;5056237;28;20439;-74
2020/12/03 09:48:18;;;;;;;11.13;6.63;;;;;;;4.51;86.63;98782.00;5056129;28;20056;-74
2020/12/03 09:50:46;;;;;;;15.02;6.72;;;;;;;4.65;84.78;98799.69;5055880;28;20056;-71
2020/12/03 09:53:15;;;;;;;9.85;6.05;;;;;;;4.61;85.37;98792.88;5055339;28;20052;-73
2020/12/03 09:55:43;;;;;;;9.90;6.13;;;;;;;4.68;86.42;98796.84;5055305;28;20053;-75
2020/12/03 09:58:09;;;;;;;9.73;6.18;;;;;;;4.71;85.54;98778.19;5055090;28;20126;-75
2020/12/03 10:00:40;;;;;;;9.07;6.45;;;;;;;4.73;85.17;98773.66;5055482;28;20334;-75
2020/12/03 10:03:58;;;;;;;11.02;6.53;;;;;;;4.73;82.94;98765.72;5054384;28;20076;-76
2020/12/03 10:06:33;;;;;;;9.73;5.53;;;;;;;4.71;84.59;98743.84;5055223;28;20402;-75
2020/12/03 10:09:09;;;;;;;11.95;5.70;;;;;;;4.80;85.04;98733.66;5054636;28;20045;-73
2020/12/03 10:11:41;;;;;;;10.07;5.63;;;;;;;4.81;84.08;98730.06;5051325;28;20107;-76
2020/12/03 10:14:19;;;;;;;9.65;5.22;;;;;;;4.85;83.80;98721.84;5055363;28;20056;-72
2020/12/03 10:16:48;;;;;;;9.45;5.00;;;;;;;4.86;83.02;98704.19;5055843;28;20351;-71
2020/12/03 10:19:16;;;;;;;8.27;5.22;;;;;;;4.93;84.24;98709.94;5037666;28;20049;-73
2020/12/03 10:21:48;;;;;;;6.13;3.95;;;;;;;4.86;83.25;98686.53;5055041;28;20052;-72
2020/12/03 10:24:25;;;;;;;6.28;4.40;;;;;;;5.00;81.96;98693.63;5055411;28;20049;-69
2020/12/03 10:27:18;;;;;;;7.95;4.40;;;;;;;4.96;83.03;98686.81;5055130;28;20124;-72
2020/12/03 10:29:58;;;;;;;9.80;4.18;;;;;;;5.02;83.50;98670.56;5055947;28;20053;-71
2020/12/03 10:32:26;;;;;;;7.10;4.63;;;;;;;5.05;83.94;98674.00;5054178;28;20060;-73
2020/12/03 10:34:54;;;;;;;6.35;3.92;;;;;;;5.05;82.88;98669.53;5053435;28;20359;-74
2020/12/03 10:37:23;;;;;;;6.82;3.88;;;;;;;5.06;83.02;98662.47;5054749;28;20464;-71
2020/12/03 10:39:54;;;;;;;6.70;4.25;;;;;;;5.00;82.06;98648.66;5054988;28;20106;-73
2020/12/03 10:42:28;;;;;;;7.68;4.20;;;;;;;5.03;82.64;98631.75;5054601;28;20078;-72
2020/12/03 10:45:00;;;;;;;8.60;3.90;;;;;;;5.08;82.08;98634.97;5053196;28;20072;-72
2020/12/03 10:47:26;;;;;;;6.43;4.50;;;;;;;5.14;82.75;98631.91;5055005;28;20103;-72
2020/12/03 10:49:53;;;;;;;6.32;3.63;;;;;;;5.18;82.87;98629.09;5054586;28;20056;-74
2020/12/03 10:52:27;;;;;;;8.75;4.18;;;;;;;5.21;82.62;98615.66;5054660;28;20045;-73
2020/12/03 10:55:00;;;;;;;7.45;4.53;;;;;;;5.18;82.13;98614.09;5053576;28;20048;-75
2020/12/03 10:57:32;;;;;;;9.15;4.70;;;;;;;5.09;83.17;98594.34;5053688;28;20061;-76
2020/12/03 11:00:01;;;;;;;6.45;4.60;;;;;;;5.26;83.85;98595.91;5053254;28;20048;-75
2020/12/03 11:02:45;;;;;;;7.13;4.68;;;;;;;5.27;82.24;98591.47;5054526;28;20065;-75
2020/12/03 11:05:12;;;;;;;9.20;5.25;;;;;;;5.24;82.36;98584.56;5054372;28;20053;-75
2020/12/03 11:07:40;;;;;;;6.45;4.57;;;;;;;5.36;82.20;98576.78;5054480;28;20053;-75
2020/12/03 11:10:06;;;;;;;8.63;4.75;;;;;;;5.27;81.81;98581.75;5051536;28;20394;-73
2020/12/03 11:12:33;;;;;;;8.50;5.03;;;;;;;5.28;82.43;98578.16;5055453;28;20092;-75
2020/12/03 11:15:04;;;;;;;6.28;4.25;;;;;;;5.28;82.35;98566.69;5055371;28;20351;-73
2020/12/03 11:17:30;;;;;;;6.32;4.18;;;;;;;5.22;82.29;98575.06;5054719;28;20057;-77
2020/12/03 11:20:20;;;;;;;8.10;5.10;;;;;;;5.22;82.01;98577.72;5054066;28;20085;-77
2020/12/03 11:22:56;;;;;;;8.48;4.78;;;;;;;5.21;82.21;98546.88;5054676;28;20382;-77
2020/12/03 11:25:27;;;;;;;8.82;4.90;;;;;;;5.28;82.06;98559.63;5054934;28;20052;-75
2020/12/03 11:27:55;;;;;;;9.27;4.47;;;;;;;5.13;82.51;98536.81;5054435;28;20064;-74
2020/12/03 11:30:26;;;;;;;7.20;4.85;;;;;;;5.29;82.34;98549.91;5053711;28;20049;-74
2020/12/03 11:32:56;;;;;;;5.72;4.25;;;;;;;5.33;81.45;98550.56;5054348;28;20136;-74
2020/12/03 11:35:31;;;;;;;7.63;4.32;;;;;;;5.34;81.63;98539.84;5053404;28;20056;-75
2020/12/03 11:37:59;;;;;;;6.90;4.35;;;;;;;5.33;81.12;98538.16;5052842;28;20063;-73
2020/12/03 11:40:50;;;;;;;6.32;4.32;;;;;;;5.36;81.46;98531.81;5052381;28;20056;-75
2020/12/03 11:48:56;;;;;;;5.20;4.00;;;;;;;5.39;81.00;98511.31;5052505;28;20099;-73
2020/12/03 11:51:36;;;;;;;6.50;3.60;;;;;;;5.37;80.01;98497.34;5052396;28;20045;-76
2020/12/03 11:54:05;;;;;;;6.15;3.40;;;;;;;5.38;80.37;98492.88;5053390;28;20045;-75
2020/12/03 11:56:33;;;;;;;3.75;2.85;;;;;;;5.38;80.98;98484.94;5054913;28;20056;-73
2020/12/03 11:59:12;;;;;;;4.05;3.13;;;;;;;5.44;80.32;98484.53;5040219;28;20142;-74
2020/12/03 12:01:39;;;;;;;6.05;3.17;;;;;;;5.43;80.45;98470.47;5056896;28;20040;-73
2020/12/03 12:04:10;;;;;;;3.75;2.95;;;;;;;5.37;80.44;98455.00;5056852;28;20129;-73